createdAt,value
2023-04-21T00:00:23.559Z,12.52
2023-04-21T00:01:25.071Z,12.47
2023-04-21T00:02:27.450Z,12.48
2023-04-21T00:03:30.384Z,12.49
2023-04-21T00:04:32.653Z,12.52
2023-04-21T00:05:34.782Z,12.54
2023-04-21T00:06:36.717Z,12.37
2023-04-21T00:07:39.151Z,12.27
2023-04-21T00:08:40.744Z,12.27
2023-04-21T00:09:42.818Z,12.32
2023-04-21T00:10:45.276Z,12.35
2023-04-21T00:11:46.864Z,12.43
2023-04-21T00:12:48.387Z,12.44
2023-04-21T00:13:49.903Z,12.47
2023-04-21T00:14:51.492Z,12.48
2023-04-21T00:15:53.061Z,12.52
2023-04-21T00:16:54.640Z,12.53
2023-04-21T00:17:56.227Z,12.51
2023-04-21T00:18:58.272Z,12.44
2023-04-21T00:19:59.860Z,12.36
2023-04-21T00:21:01.492Z,12.36
2023-04-21T00:22:04.511Z,12.38
2023-04-21T00:23:06.119Z,12.37
2023-04-21T00:24:08.044Z,12.41
2023-04-21T00:25:10.127Z,12.37
2023-04-21T00:26:11.802Z,12.31
2023-04-21T00:27:13.607Z,12.25
2023-04-21T00:28:15.179Z,12.24
2023-04-21T00:29:16.911Z,12.25
2023-04-21T00:30:18.610Z,12.27
2023-04-21T00:31:20.146Z,12.26
2023-04-21T00:32:21.727Z,12.17
2023-04-21T00:33:23.386Z,12.12
2023-04-21T00:34:24.984Z,12.12
2023-04-21T00:35:26.769Z,12.08
2023-04-21T00:36:28.553Z,12.06
2023-04-21T00:37:31.059Z,12.02
2023-04-21T00:38:32.633Z,12.05
2023-04-21T00:39:34.252Z,12.02
2023-04-21T00:40:35.844Z,12.01
2023-04-21T00:41:38.608Z,12.00
2023-04-21T00:42:40.358Z,12.02
2023-04-21T00:44:01.640Z,12.02
2023-04-21T00:45:06.645Z,12.02
2023-04-21T00:46:08.191Z,11.92
2023-04-21T00:47:10.164Z,11.96
2023-04-21T00:48:11.826Z,11.98
2023-04-21T00:49:13.660Z,12.00
2023-04-21T00:50:15.341Z,12.00
2023-04-21T00:51:17.435Z,11.80
2023-04-21T00:52:19.393Z,11.72
2023-04-21T00:53:21.850Z,11.66
2023-04-21T00:54:25.371Z,11.58
2023-04-21T00:55:27.090Z,11.52
2023-04-21T00:56:32.100Z,11.48
2023-04-21T00:57:37.594Z,11.25
2023-04-21T00:58:42.717Z,11.14
2023-04-21T00:59:44.503Z,11.13
2023-04-21T01:00:46.145Z,11.14
2023-04-21T01:01:47.739Z,11.17
2023-04-21T01:02:49.693Z,11.21
2023-04-21T01:03:51.951Z,11.25
2023-04-21T01:04:53.567Z,10.99
2023-04-21T01:05:55.151Z,10.84
2023-04-21T01:06:56.815Z,10.83
2023-04-21T01:07:58.476Z,10.90
2023-04-21T01:09:00.206Z,10.98
2023-04-21T01:10:02.839Z,11.06
2023-04-21T01:11:14.427Z,11.16
2023-04-21T01:12:16.067Z,11.24
2023-04-21T01:13:21.006Z,11.17
2023-04-21T01:14:22.565Z,11.16
2023-04-21T01:15:24.704Z,11.16
2023-04-21T01:16:26.958Z,11.10
2023-04-21T01:17:30.337Z,11.04
2023-04-21T01:18:31.970Z,11.08
2023-04-21T01:19:39.447Z,11.13
2023-04-21T01:20:41.311Z,11.08
2023-04-21T01:21:43.096Z,11.06
2023-04-21T01:22:45.357Z,11.05
2023-04-21T01:23:47.039Z,11.04
2023-04-21T01:24:49.311Z,11.00
2023-04-21T01:25:51.604Z,10.99
2023-04-21T01:26:53.217Z,10.87
2023-04-21T01:27:54.874Z,10.79
2023-04-21T01:28:56.943Z,10.69
2023-04-21T01:29:58.516Z,10.49
2023-04-21T01:31:00.173Z,10.36
2023-04-21T01:32:10.711Z,10.23
2023-04-21T01:33:12.548Z,10.17
2023-04-21T01:34:14.227Z,10.16
2023-04-21T01:35:15.785Z,10.09
2023-04-21T01:36:17.437Z,10.04
2023-04-21T01:37:21.948Z,9.94
2023-04-21T01:38:23.625Z,9.80
2023-04-21T01:39:25.227Z,9.72
2023-04-21T01:40:26.940Z,9.56
2023-04-21T01:41:28.583Z,9.47
2023-04-21T01:42:31.100Z,9.47
2023-04-21T01:43:32.656Z,9.44
2023-04-21T01:44:34.824Z,9.34
2023-04-21T01:45:36.452Z,9.26
2023-04-21T01:46:38.628Z,9.17
2023-04-21T01:47:40.367Z,9.02
2023-04-21T01:48:42.083Z,8.93
2023-04-21T01:49:43.628Z,8.93
2023-04-21T01:50:45.354Z,8.91
2023-04-21T01:51:46.859Z,8.83
2023-04-21T01:52:48.547Z,8.66
2023-04-21T01:53:50.049Z,8.52
2023-04-21T01:54:51.612Z,8.44
2023-04-21T01:55:53.196Z,8.38
2023-04-21T01:56:54.884Z,8.36
2023-04-21T01:57:59.181Z,8.40
2023-04-21T01:59:00.774Z,8.39
2023-04-21T02:00:04.044Z,8.36
2023-04-21T02:01:05.860Z,8.40
2023-04-21T02:02:07.792Z,8.47
2023-04-21T02:03:09.575Z,8.53
2023-04-21T02:04:11.456Z,8.62
2023-04-21T02:05:13.173Z,8.73
2023-04-21T02:06:14.962Z,8.85
2023-04-21T02:07:16.535Z,8.95
2023-04-21T02:08:18.179Z,9.07
2023-04-21T02:09:20.057Z,9.17
2023-04-21T02:10:21.931Z,9.29
2023-04-21T02:11:25.204Z,9.31
2023-04-21T02:12:26.793Z,9.34
2023-04-21T02:13:28.371Z,9.39
2023-04-21T02:14:29.928Z,9.42
2023-04-21T02:15:31.558Z,9.42
2023-04-21T02:16:33.315Z,9.37
2023-04-21T02:17:34.980Z,9.22
2023-04-21T02:18:39.933Z,9.28
2023-04-21T02:19:41.467Z,9.33
2023-04-21T02:20:43.095Z,9.15
2023-04-21T02:21:44.631Z,8.94
2023-04-21T02:22:46.218Z,8.79
2023-04-21T02:23:47.811Z,8.67
2023-04-21T02:24:50.034Z,8.69
2023-04-21T02:25:51.573Z,8.70
2023-04-21T02:26:53.100Z,8.68
2023-04-21T02:27:54.614Z,8.74
2023-04-21T02:28:56.256Z,8.75
2023-04-21T02:29:57.776Z,8.81
2023-04-21T02:30:59.298Z,8.77
2023-04-21T02:32:05.560Z,8.69
2023-04-21T02:33:19.703Z,8.70
2023-04-21T02:34:21.570Z,8.64
2023-04-21T02:35:23.167Z,8.72
2023-04-21T02:36:24.703Z,8.86
2023-04-21T02:37:26.673Z,8.98
2023-04-21T02:38:28.301Z,9.06
2023-04-21T02:39:29.879Z,9.17
2023-04-21T02:40:31.430Z,9.29
2023-04-21T02:41:33.094Z,9.37
2023-04-21T02:42:34.931Z,9.50
2023-04-21T02:43:36.547Z,9.55
2023-04-21T02:44:38.684Z,9.59
2023-04-21T02:45:40.696Z,9.56
2023-04-21T02:46:42.874Z,9.49
2023-04-21T02:47:44.519Z,9.43
2023-04-21T02:48:46.086Z,9.43
2023-04-21T02:49:47.820Z,9.33
2023-04-21T02:50:50.724Z,9.35
2023-04-21T02:51:52.313Z,9.41
2023-04-21T02:52:53.809Z,9.49
2023-04-21T02:53:55.443Z,9.57
2023-04-21T02:54:57.012Z,9.65
2023-04-21T02:55:58.575Z,9.75
2023-04-21T02:57:00.068Z,9.83
2023-04-21T02:58:01.550Z,9.88
2023-04-21T02:59:03.051Z,9.92
2023-04-21T03:00:05.665Z,9.94
2023-04-21T03:01:07.318Z,9.94
2023-04-21T03:02:09.067Z,9.99
2023-04-21T03:03:10.903Z,9.98
2023-04-21T03:04:13.093Z,9.97
2023-04-21T03:05:14.784Z,10.01
2023-04-21T03:06:16.389Z,10.04
2023-04-21T03:07:17.923Z,10.01
2023-04-21T03:08:19.427Z,10.00
2023-04-21T03:09:21.500Z,10.01
2023-04-21T03:10:23.227Z,10.02
2023-04-21T03:11:24.799Z,10.02
2023-04-21T03:12:26.368Z,10.06
2023-04-21T03:13:27.923Z,10.10
2023-04-21T03:14:29.426Z,10.16
2023-04-21T03:15:31.211Z,10.20
2023-04-21T03:16:32.814Z,10.23
2023-04-21T03:17:34.438Z,10.29
2023-04-21T03:18:36.430Z,10.32
2023-04-21T03:19:38.058Z,10.37
2023-04-21T03:20:39.650Z,10.41
2023-04-21T03:21:41.218Z,10.44
2023-04-21T03:22:42.733Z,10.48
2023-04-21T03:23:44.788Z,10.51
2023-04-21T03:24:46.338Z,10.53
2023-04-21T03:25:47.934Z,10.56
2023-04-21T03:26:49.592Z,10.54
2023-04-21T03:27:51.550Z,10.52
2023-04-21T03:28:53.060Z,10.48
2023-04-21T03:29:54.659Z,10.40
2023-04-21T03:30:56.225Z,10.37
2023-04-21T03:31:57.893Z,10.34
2023-04-21T03:32:59.551Z,10.35
2023-04-21T03:34:01.190Z,10.26
2023-04-21T03:35:02.852Z,10.17
2023-04-21T03:36:04.592Z,10.12
2023-04-21T03:37:06.305Z,10.14
2023-04-21T03:38:07.886Z,10.16
2023-04-21T03:39:19.210Z,10.16
2023-04-21T03:40:21.533Z,10.16
2023-04-21T03:41:23.107Z,10.18
2023-04-21T03:42:25.910Z,10.20
2023-04-21T03:43:27.536Z,10.21
2023-04-21T03:44:29.144Z,10.22
2023-04-21T03:45:30.816Z,10.24
2023-04-21T03:46:32.554Z,10.28
2023-04-21T03:47:34.383Z,10.28
2023-04-21T03:48:36.022Z,10.28
2023-04-21T03:49:37.602Z,10.30
2023-04-21T03:50:39.192Z,10.30
2023-04-21T03:51:40.754Z,10.29
2023-04-21T03:52:42.277Z,10.30
2023-04-21T03:53:43.923Z,10.27
2023-04-21T03:54:45.489Z,10.30
2023-04-21T03:55:48.865Z,10.31
2023-04-21T03:56:50.552Z,10.32
2023-04-21T03:57:52.143Z,10.30
2023-04-21T03:58:53.646Z,10.30
2023-04-21T03:59:55.306Z,10.31
2023-04-21T04:00:57.094Z,10.21
2023-04-21T04:01:58.721Z,10.09
2023-04-21T04:03:00.699Z,9.97
2023-04-21T04:04:02.756Z,9.64
2023-04-21T04:05:05.286Z,9.44
2023-04-21T04:06:07.165Z,9.22
2023-04-21T04:07:10.073Z,9.15
2023-04-21T04:08:11.632Z,9.09
2023-04-21T04:09:13.273Z,8.98
2023-04-21T04:10:14.814Z,8.95
2023-04-21T04:11:16.359Z,8.96
2023-04-21T04:12:17.921Z,8.94
2023-04-21T04:13:19.725Z,9.11
2023-04-21T04:14:21.307Z,9.34
2023-04-21T04:15:23.847Z,9.44
2023-04-21T04:16:25.652Z,9.53
2023-04-21T04:17:27.366Z,9.61
2023-04-21T04:18:29.083Z,9.68
2023-04-21T04:19:32.047Z,9.75
2023-04-21T04:20:33.614Z,9.79
2023-04-21T04:21:35.220Z,9.84
2023-04-21T04:22:37.045Z,9.91
2023-04-21T04:23:38.946Z,10.02
2023-04-21T04:24:40.482Z,10.11
2023-04-21T04:25:42.693Z,10.15
2023-04-21T04:26:44.531Z,10.20
2023-04-21T04:27:46.502Z,10.23
2023-04-21T04:28:48.186Z,10.26
2023-04-21T04:29:49.680Z,10.31
2023-04-21T04:30:51.318Z,10.29
2023-04-21T04:31:53.235Z,10.35
2023-04-21T04:32:55.564Z,10.45
2023-04-21T04:33:57.624Z,10.53
2023-04-21T04:34:59.474Z,10.44
2023-04-21T04:36:01.068Z,10.47
2023-04-21T04:37:03.478Z,10.52
2023-04-21T04:38:05.030Z,10.59
2023-04-21T04:39:09.373Z,10.65
2023-04-21T04:40:15.467Z,10.75
2023-04-21T04:41:17.038Z,10.83
2023-04-21T04:42:20.304Z,10.91
2023-04-21T04:43:21.866Z,11.03
2023-04-21T04:44:25.833Z,11.13
2023-04-21T04:45:28.691Z,11.25
2023-04-21T04:46:30.387Z,11.34
2023-04-21T04:47:32.054Z,11.44
2023-04-21T04:48:33.668Z,11.53
2023-04-21T04:49:35.221Z,11.66
2023-04-21T04:50:36.835Z,11.76
2023-04-21T04:51:38.701Z,11.84
2023-04-21T04:52:40.691Z,11.95
2023-04-21T04:53:42.221Z,12.02
2023-04-21T04:54:43.756Z,12.07
2023-04-21T04:55:46.168Z,12.14
2023-04-21T04:56:47.713Z,12.24
2023-04-21T04:57:49.819Z,12.32
2023-04-21T04:58:51.450Z,12.43
2023-04-21T04:59:56.207Z,12.52
2023-04-21T05:00:57.899Z,12.62
2023-04-21T05:01:59.519Z,12.67
2023-04-21T05:03:01.214Z,12.72
2023-04-21T05:04:03.140Z,12.80
2023-04-21T05:05:06.589Z,12.93
2023-04-21T05:06:08.401Z,12.99
2023-04-21T05:07:10.732Z,13.07
2023-04-21T05:08:13.724Z,13.13
2023-04-21T05:09:16.836Z,13.15
2023-04-21T05:10:18.459Z,12.98
2023-04-21T05:11:20.401Z,12.95
2023-04-21T05:12:22.417Z,13.01
2023-04-21T05:13:24.024Z,13.08
2023-04-21T05:14:26.668Z,13.17
2023-04-21T05:15:28.436Z,13.26
2023-04-21T05:16:30.116Z,13.20
2023-04-21T05:17:33.434Z,13.21
2023-04-21T05:18:34.974Z,13.24
2023-04-21T05:19:39.704Z,13.16
2023-04-21T05:20:42.556Z,13.10
2023-04-21T05:21:44.306Z,12.96
2023-04-21T05:22:45.953Z,12.74
2023-04-21T05:23:47.477Z,12.64
2023-04-21T05:24:49.065Z,12.82
2023-04-21T05:25:50.670Z,12.90
2023-04-21T05:26:52.177Z,13.00
2023-04-21T05:27:53.689Z,13.15
2023-04-21T05:28:56.777Z,13.26
2023-04-21T05:29:58.435Z,13.38
2023-04-21T05:30:59.997Z,13.46
2023-04-21T05:32:01.950Z,13.59
2023-04-21T05:33:03.800Z,13.74
2023-04-21T05:34:05.411Z,13.65
2023-04-21T05:35:07.506Z,13.66
2023-04-21T05:36:10.201Z,13.75
2023-04-21T05:37:12.387Z,13.78
2023-04-21T05:38:13.976Z,13.89
2023-04-21T05:39:16.532Z,13.90
2023-04-21T05:40:18.160Z,13.98
2023-04-21T05:41:19.725Z,14.06
2023-04-21T05:42:21.929Z,14.06
2023-04-21T05:43:23.598Z,14.14
2023-04-21T05:44:25.678Z,14.14
2023-04-21T05:45:27.705Z,14.15
2023-04-21T05:46:30.384Z,14.18
2023-04-21T05:47:32.009Z,14.12
2023-04-21T05:48:33.616Z,14.05
2023-04-21T05:49:35.268Z,14.00
2023-04-21T05:50:36.856Z,14.03
2023-04-21T05:51:38.453Z,14.06
2023-04-21T05:52:40.157Z,14.18
2023-04-21T05:53:43.692Z,14.25
2023-04-21T05:54:45.457Z,14.38
2023-04-21T05:55:47.003Z,14.36
2023-04-21T05:56:48.665Z,14.38
2023-04-21T05:57:50.335Z,14.47
2023-04-21T05:58:51.944Z,14.57
2023-04-21T05:59:53.577Z,14.61
2023-04-21T06:00:55.494Z,14.66
2023-04-21T06:01:57.046Z,14.28
2023-04-21T06:02:58.922Z,14.31
2023-04-21T06:04:00.976Z,14.17
2023-04-21T06:05:02.907Z,13.70
2023-04-21T06:06:06.507Z,13.16
2023-04-21T06:07:10.426Z,13.20
2023-04-21T06:08:12.336Z,13.48
2023-04-21T06:09:15.703Z,13.55
2023-04-21T06:10:18.324Z,13.33
2023-04-21T06:11:19.899Z,13.19
2023-04-21T06:12:21.510Z,13.31
2023-04-21T06:13:23.097Z,13.59
2023-04-21T06:14:24.712Z,13.68
2023-04-21T06:15:26.253Z,13.56
2023-04-21T06:16:28.124Z,13.06
2023-04-21T06:17:29.768Z,12.97
2023-04-21T06:18:31.377Z,13.06
2023-04-21T06:19:38.422Z,13.37
2023-04-21T06:20:41.006Z,13.66
2023-04-21T06:21:42.582Z,13.91
2023-04-21T06:22:44.103Z,14.13
2023-04-21T06:23:45.817Z,14.32
2023-04-21T06:24:47.356Z,14.59
2023-04-21T06:26:00.448Z,14.84
2023-04-21T06:27:02.018Z,15.03
2023-04-21T06:28:03.637Z,15.02
2023-04-21T06:29:05.180Z,14.68
2023-04-21T06:30:07.466Z,14.20
2023-04-21T06:31:09.840Z,14.00
2023-04-21T06:32:12.617Z,14.03
2023-04-21T06:33:14.196Z,14.20
2023-04-21T06:34:16.255Z,14.44
2023-04-21T06:35:18.832Z,14.45
2023-04-21T06:36:22.913Z,14.58
2023-04-21T06:37:24.529Z,14.52
2023-04-21T06:38:26.246Z,14.52
2023-04-21T06:39:28.836Z,14.64
2023-04-21T06:40:30.474Z,14.88
2023-04-21T06:41:32.004Z,15.00
2023-04-21T06:42:33.553Z,15.16
2023-04-21T06:43:35.731Z,15.45
2023-04-21T06:44:38.608Z,15.57
2023-04-21T06:45:40.274Z,15.38
2023-04-21T06:46:41.910Z,15.37
2023-04-21T06:47:43.509Z,15.24
2023-04-21T06:48:45.106Z,15.12
2023-04-21T06:49:46.671Z,15.40
2023-04-21T06:50:48.282Z,15.67
2023-04-21T06:51:49.862Z,15.70
2023-04-21T06:52:51.400Z,15.60
2023-04-21T06:53:52.980Z,15.55
2023-04-21T06:54:54.512Z,15.44
2023-04-21T06:55:56.330Z,15.25
2023-04-21T06:56:58.060Z,15.04
2023-04-21T06:57:59.644Z,14.88
2023-04-21T06:59:01.247Z,14.74
2023-04-21T07:00:03.073Z,14.82
2023-04-21T07:01:04.729Z,15.30
2023-04-21T07:02:06.471Z,15.64
2023-04-21T07:03:08.168Z,15.94
2023-04-21T07:04:09.851Z,16.14
2023-04-21T07:05:11.424Z,16.38
2023-04-21T07:06:12.990Z,16.58
2023-04-21T07:07:14.585Z,16.62
2023-04-21T07:08:16.151Z,16.46
2023-04-21T07:09:18.481Z,16.69
2023-04-21T07:10:20.405Z,16.83
2023-04-21T07:11:21.976Z,16.62
2023-04-21T07:12:23.569Z,16.46
2023-04-21T07:13:25.213Z,16.30
2023-04-21T07:14:26.860Z,16.56
2023-04-21T07:15:28.479Z,16.60
2023-04-21T07:16:30.363Z,16.69
2023-04-21T07:17:32.000Z,16.99
2023-04-21T07:18:34.759Z,17.19
2023-04-21T07:19:37.083Z,17.43
2023-04-21T07:20:38.690Z,17.66
2023-04-21T07:21:40.307Z,17.69
2023-04-21T07:22:41.824Z,17.86
2023-04-21T07:23:43.353Z,17.91
2023-04-21T07:24:45.799Z,17.59
2023-04-21T07:25:47.521Z,17.56
2023-04-21T07:26:49.117Z,17.60
2023-04-21T07:27:50.772Z,17.72
2023-04-21T07:28:52.906Z,17.89
2023-04-21T07:29:54.414Z,18.02
2023-04-21T07:30:56.827Z,18.11
2023-04-21T07:31:58.664Z,18.26
2023-04-21T07:33:00.814Z,18.43
2023-04-21T07:34:02.487Z,18.51
2023-04-21T07:35:08.399Z,18.63
2023-04-21T07:36:10.061Z,18.73
2023-04-21T07:37:11.676Z,18.85
2023-04-21T07:38:13.239Z,18.97
2023-04-21T07:39:14.821Z,18.99
2023-04-21T07:40:16.407Z,19.12
2023-04-21T07:41:17.965Z,19.23
2023-04-21T07:42:19.541Z,19.13
2023-04-21T07:43:21.065Z,19.05
2023-04-21T07:44:22.697Z,19.06
2023-04-21T07:45:25.437Z,19.07
2023-04-21T07:46:30.458Z,19.18
2023-04-21T07:47:33.038Z,19.18
2023-04-21T07:48:34.645Z,19.29
2023-04-21T07:49:36.326Z,19.45
2023-04-21T07:50:37.872Z,19.50
2023-04-21T07:51:40.248Z,19.58
2023-04-21T07:52:41.782Z,19.53
2023-04-21T07:53:43.822Z,19.14
2023-04-21T07:54:45.495Z,18.74
2023-04-21T07:55:47.158Z,18.56
2023-04-21T07:56:48.721Z,18.71
2023-04-21T07:57:50.550Z,19.00
2023-04-21T07:58:52.112Z,19.22
2023-04-21T07:59:53.681Z,19.35
2023-04-21T08:00:55.345Z,19.22
2023-04-21T08:01:56.976Z,19.07
2023-04-21T08:02:58.694Z,19.05
2023-04-21T08:04:00.582Z,19.02
2023-04-21T08:05:02.409Z,19.12
2023-04-21T08:06:04.873Z,19.22
2023-04-21T08:07:06.706Z,19.27
2023-04-21T08:08:08.484Z,19.29
2023-04-21T08:09:10.044Z,19.22
2023-04-21T08:10:11.690Z,18.90
2023-04-21T08:11:13.207Z,18.71
2023-04-21T08:12:15.080Z,18.66
2023-04-21T08:13:16.720Z,18.47
2023-04-21T08:14:18.635Z,18.35
2023-04-21T08:15:20.533Z,18.28
2023-04-21T08:16:22.271Z,18.29
2023-04-21T08:17:24.071Z,18.23
2023-04-21T08:18:25.772Z,18.10
2023-04-21T08:19:27.429Z,18.09
2023-04-21T08:20:29.105Z,18.15
2023-04-21T08:21:32.033Z,18.19
2023-04-21T08:22:33.755Z,18.31
2023-04-21T08:23:35.469Z,18.44
2023-04-21T08:24:37.079Z,18.48
2023-04-21T08:25:38.761Z,18.37
2023-04-21T08:26:40.346Z,18.35
2023-04-21T08:27:42.007Z,18.28
2023-04-21T08:28:43.524Z,18.28
2023-04-21T08:29:45.115Z,18.30
2023-04-21T08:30:46.724Z,18.27
2023-04-21T08:31:48.295Z,18.21
2023-04-21T08:32:49.901Z,18.35
2023-04-21T08:34:01.075Z,18.49
2023-04-21T08:35:04.316Z,18.50
2023-04-21T08:36:12.488Z,18.55
2023-04-21T08:37:16.880Z,18.67
2023-04-21T08:38:18.627Z,18.74
2023-04-21T08:39:20.353Z,18.84
2023-04-21T08:40:25.461Z,18.88
2023-04-21T08:41:27.283Z,18.83
2023-04-21T08:42:30.119Z,18.84
2023-04-21T08:43:31.808Z,18.81
2023-04-21T08:44:33.361Z,18.81
2023-04-21T08:45:35.816Z,18.88
2023-04-21T08:46:37.606Z,18.89
2023-04-21T08:47:41.104Z,18.84
2023-04-21T08:48:42.646Z,18.67
2023-04-21T08:49:47.209Z,18.54
2023-04-21T08:50:50.044Z,18.54
2023-04-21T08:51:51.646Z,18.54
2023-04-21T08:52:54.744Z,18.50
2023-04-21T08:53:56.773Z,18.54
2023-04-21T08:54:59.206Z,18.56
2023-04-21T08:56:10.945Z,18.65
2023-04-21T08:57:15.739Z,18.68
2023-04-21T08:58:17.911Z,18.62
2023-04-21T08:59:19.740Z,18.73
2023-04-21T09:00:22.016Z,18.82
2023-04-21T09:01:23.668Z,18.61
2023-04-21T09:02:25.545Z,18.62
2023-04-21T09:03:28.460Z,18.65
2023-04-21T09:04:31.177Z,18.55
2023-04-21T09:05:34.967Z,18.53
2023-04-21T09:06:46.210Z,18.52
2023-04-21T09:07:47.993Z,18.41
2023-04-21T09:08:56.202Z,18.37
2023-04-21T09:09:58.607Z,18.30
2023-04-21T09:11:01.598Z,18.23
2023-04-21T09:12:03.530Z,18.28
2023-04-21T09:13:08.973Z,18.34
2023-04-21T09:14:11.461Z,18.28
2023-04-21T09:15:13.051Z,18.35
2023-04-21T09:16:22.815Z,18.41
2023-04-21T09:17:36.805Z,18.31
2023-04-21T09:18:40.378Z,18.49
2023-04-21T09:19:42.231Z,18.69
2023-04-21T09:20:45.371Z,18.84
2023-04-21T09:21:46.899Z,18.95
2023-04-21T09:22:51.212Z,19.06
2023-04-21T09:23:53.662Z,19.08
2023-04-21T09:25:00.336Z,19.18
2023-04-21T09:26:03.629Z,18.95
2023-04-21T09:27:05.247Z,18.89
2023-04-21T09:28:11.145Z,19.01
2023-04-21T09:29:12.693Z,19.02
2023-04-21T09:30:19.464Z,19.11
2023-04-21T09:31:29.002Z,19.02
2023-04-21T09:32:36.782Z,18.94
2023-04-21T09:33:49.571Z,18.83
2023-04-21T09:35:01.437Z,18.80
2023-04-21T09:36:03.441Z,18.68
2023-04-21T09:37:05.282Z,18.67
2023-04-21T09:38:12.412Z,18.78
2023-04-21T09:39:34.405Z,18.83
2023-04-21T09:40:36.048Z,18.87
2023-04-21T09:41:37.573Z,18.83
2023-04-21T09:42:40.234Z,18.76
2023-04-21T09:43:42.958Z,18.74
2023-04-21T09:44:53.190Z,18.82
2023-04-21T09:46:00.558Z,18.93
2023-04-21T09:47:03.771Z,18.93
2023-04-21T09:48:09.585Z,18.99
2023-04-21T09:49:13.840Z,18.82
2023-04-21T09:50:16.385Z,18.77
2023-04-21T09:52:24.296Z,18.90
2023-04-21T09:53:28.521Z,18.98
2023-04-21T09:54:34.517Z,19.08
2023-04-21T09:55:36.814Z,19.24
2023-04-21T09:56:41.094Z,19.18
2023-04-21T09:57:45.056Z,19.18
2023-04-21T09:58:48.822Z,19.18
2023-04-21T10:00:05.395Z,19.23
2023-04-21T10:01:08.898Z,19.19
2023-04-21T10:02:13.065Z,19.14
2023-04-21T10:03:18.289Z,19.04
2023-04-21T10:04:21.370Z,19.08
2023-04-21T10:05:23.590Z,19.18
2023-04-21T10:06:25.236Z,19.25
2023-04-21T10:07:26.963Z,19.32
2023-04-21T10:08:29.178Z,19.34
2023-04-21T10:09:40.352Z,19.35
2023-04-21T10:10:42.010Z,19.32
2023-04-21T10:11:44.078Z,19.27
2023-04-21T10:12:45.998Z,19.27
2023-04-21T10:13:47.878Z,19.25
2023-04-21T10:14:56.432Z,19.30
2023-04-21T10:16:07.741Z,19.18
2023-04-21T10:17:10.699Z,19.23
2023-04-21T10:18:16.564Z,19.27
2023-04-21T10:19:26.258Z,19.38
2023-04-21T10:20:29.474Z,19.44
2023-04-21T10:21:36.629Z,19.41
2023-04-21T10:22:39.706Z,19.49
2023-04-21T10:23:46.497Z,19.52
2023-04-21T10:24:48.294Z,19.58
2023-04-21T10:25:49.892Z,19.64
2023-04-21T10:26:54.550Z,19.65
2023-04-21T10:27:56.712Z,19.53
2023-04-21T10:29:00.200Z,19.55
2023-04-21T10:30:18.106Z,19.51
2023-04-21T10:31:22.929Z,19.54
2023-04-21T10:32:41.411Z,19.62
2023-04-21T10:33:43.069Z,19.72
2023-04-21T10:34:45.706Z,19.79
2023-04-21T10:36:01.432Z,19.89
2023-04-21T10:37:06.230Z,19.87
2023-04-21T10:38:08.160Z,19.93
2023-04-21T10:39:13.018Z,19.99
2023-04-21T10:40:46.862Z,20.02
2023-04-21T10:41:48.364Z,20.09
2023-04-21T10:42:49.972Z,20.17
2023-04-21T10:43:51.588Z,20.15
2023-04-21T10:44:57.236Z,20.19
2023-04-21T10:45:58.808Z,20.05
2023-04-21T10:47:00.476Z,20.01
2023-04-21T10:48:03.956Z,19.95
2023-04-21T10:49:09.587Z,19.98
2023-04-21T10:50:16.430Z,20.05
2023-04-21T10:51:19.023Z,20.05
2023-04-21T10:52:21.470Z,20.12
2023-04-21T10:53:25.502Z,20.17
2023-04-21T10:54:31.553Z,20.20
2023-04-21T10:55:33.126Z,20.19
2023-04-21T10:56:35.567Z,20.13
2023-04-21T10:57:42.510Z,20.07
2023-04-21T10:58:44.398Z,20.04
2023-04-21T10:59:48.123Z,20.10
2023-04-21T11:00:55.105Z,20.24
2023-04-21T11:01:57.288Z,20.28
2023-04-21T11:03:04.434Z,20.45
2023-04-21T11:04:06.382Z,20.53
2023-04-21T11:05:09.435Z,20.40
2023-04-21T11:06:20.936Z,20.43
2023-04-21T11:07:23.524Z,20.54
2023-04-21T11:08:25.199Z,20.58
2023-04-21T11:09:26.795Z,20.50
2023-04-21T11:10:28.512Z,20.31
2023-04-21T11:11:30.162Z,20.22
2023-04-21T11:12:38.280Z,20.17
2023-04-21T11:13:41.475Z,20.04
2023-04-21T11:14:48.331Z,19.91
2023-04-21T11:16:08.507Z,19.86
2023-04-21T11:17:14.467Z,19.94
2023-04-21T11:18:16.208Z,19.98
2023-04-21T11:19:17.892Z,20.09
2023-04-21T11:20:19.514Z,20.13
2023-04-21T11:21:24.872Z,20.00
2023-04-21T11:22:27.063Z,19.97
2023-04-21T11:23:28.729Z,19.83
2023-04-21T11:24:34.197Z,19.81
2023-04-21T11:25:36.491Z,19.76
2023-04-21T11:26:42.758Z,19.80
2023-04-21T11:27:53.671Z,19.73
2023-04-21T11:28:55.357Z,19.71
2023-04-21T11:29:57.507Z,19.78
2023-04-21T11:30:59.253Z,19.82
2023-04-21T11:32:02.082Z,19.76
2023-04-21T11:33:03.790Z,19.68
2023-04-21T11:34:07.257Z,19.56
2023-04-21T11:35:09.246Z,19.54
2023-04-21T11:36:10.944Z,19.54
2023-04-21T11:37:20.740Z,19.45
2023-04-21T11:38:24.564Z,19.33
2023-04-21T11:39:26.124Z,19.30
2023-04-21T11:40:27.665Z,19.23
2023-04-21T11:41:29.253Z,19.18
2023-04-21T11:42:31.271Z,19.10
2023-04-21T11:43:32.935Z,19.06
2023-04-21T11:44:43.313Z,19.02
2023-04-21T11:45:49.435Z,19.00
2023-04-21T11:46:51.182Z,19.07
2023-04-21T11:48:13.565Z,19.07
2023-04-21T11:49:17.348Z,19.03
2023-04-21T11:50:35.697Z,19.00
2023-04-21T11:51:39.786Z,19.06
2023-04-21T11:52:43.474Z,19.11
2023-04-21T11:53:48.263Z,19.05
2023-04-21T11:54:59.668Z,19.04
2023-04-21T11:56:02.034Z,19.00
2023-04-21T11:57:03.811Z,19.00
2023-04-21T11:58:05.926Z,19.03
2023-04-21T11:59:12.017Z,19.11
2023-04-21T12:00:14.520Z,19.27
2023-04-21T12:01:16.895Z,19.32
2023-04-21T12:02:26.951Z,19.35
2023-04-21T12:03:28.753Z,19.45
2023-04-21T12:04:32.189Z,19.42
2023-04-21T12:05:36.946Z,19.45
2023-04-21T12:06:38.675Z,19.50
2023-04-21T12:07:46.305Z,19.53
2023-04-21T12:08:48.013Z,19.58
2023-04-21T12:09:53.493Z,19.65
2023-04-21T12:10:55.239Z,19.70
2023-04-21T12:11:58.916Z,19.75
2023-04-21T12:13:00.886Z,19.68
2023-04-21T12:14:02.451Z,19.71
2023-04-21T12:15:04.525Z,19.72
2023-04-21T12:16:06.474Z,19.66
2023-04-21T12:17:08.046Z,19.60
2023-04-21T12:18:13.836Z,19.56
2023-04-21T12:19:26.599Z,19.60
2023-04-21T12:20:29.856Z,19.56
2023-04-21T12:21:31.685Z,19.70
2023-04-21T12:22:33.556Z,19.79
2023-04-21T12:23:35.108Z,19.93
2023-04-21T12:24:37.412Z,19.96
2023-04-21T12:25:38.917Z,19.96
2023-04-21T12:26:40.890Z,19.89
2023-04-21T12:27:49.903Z,19.87
2023-04-21T12:28:52.188Z,19.98
2023-04-21T12:29:53.729Z,20.07
2023-04-21T12:30:55.967Z,20.18
2023-04-21T12:31:57.620Z,20.27
2023-04-21T12:32:59.307Z,20.29
2023-04-21T12:34:01.020Z,20.29
2023-04-21T12:35:04.309Z,20.32
2023-04-21T12:36:06.113Z,20.35
2023-04-21T12:37:07.788Z,20.33
2023-04-21T12:38:09.551Z,20.36
2023-04-21T12:39:11.168Z,20.33
2023-04-21T12:40:12.790Z,20.24
2023-04-21T12:41:14.335Z,20.22
2023-04-21T12:42:16.055Z,20.29
2023-04-21T12:43:17.698Z,20.34
2023-04-21T12:44:19.209Z,20.51
2023-04-21T12:45:20.806Z,20.49
2023-04-21T12:46:22.662Z,20.57
2023-04-21T12:47:24.401Z,20.68
2023-04-21T12:48:26.059Z,20.60
2023-04-21T12:49:27.851Z,20.48
2023-04-21T12:50:29.488Z,20.41
2023-04-21T12:51:32.246Z,20.41
2023-04-21T12:52:33.830Z,20.31
2023-04-21T12:53:36.823Z,20.23
2023-04-21T12:54:38.396Z,20.22
2023-04-21T12:55:41.278Z,20.26
2023-04-21T12:56:44.865Z,20.35
2023-04-21T12:57:46.533Z,20.37
2023-04-21T12:58:48.462Z,20.42
2023-04-21T12:59:50.103Z,20.47
2023-04-21T13:00:51.650Z,20.59
2023-04-21T13:01:53.337Z,20.70
2023-04-21T13:02:55.090Z,20.78
2023-04-21T13:03:56.959Z,20.81
2023-04-21T13:04:58.569Z,20.79
2023-04-21T13:06:00.179Z,20.78
2023-04-21T13:07:02.031Z,20.88
2023-04-21T13:08:03.588Z,20.95
2023-04-21T13:09:06.360Z,20.98
2023-04-21T13:10:08.596Z,21.02
2023-04-21T13:11:10.655Z,21.11
2023-04-21T13:12:12.242Z,21.08
2023-04-21T13:13:13.876Z,21.03
2023-04-21T13:14:16.004Z,20.99
2023-04-21T13:15:17.599Z,20.88
2023-04-21T13:16:19.287Z,20.88
2023-04-21T13:17:20.969Z,20.80
2023-04-21T13:18:22.530Z,20.79
2023-04-21T13:19:24.173Z,20.85
2023-04-21T13:20:26.194Z,20.88
2023-04-21T13:21:27.932Z,20.90
2023-04-21T13:22:29.654Z,20.95
2023-04-21T13:23:31.298Z,20.99
2023-04-21T13:24:33.361Z,20.85
2023-04-21T13:25:34.924Z,20.90
2023-04-21T13:26:36.617Z,20.86
2023-04-21T13:27:40.055Z,20.84
2023-04-21T13:28:41.973Z,20.84
2023-04-21T13:29:43.551Z,20.82
2023-04-21T13:30:45.737Z,20.77
2023-04-21T13:31:47.423Z,20.73
2023-04-21T13:32:49.194Z,20.65
2023-04-21T13:33:53.038Z,20.68